Pas de vigilance météorologique particulière.   -   Il n'y a aucun avertissement

Nearby METAR Reports

 

LEZL - Sevilla, Spain
Distance from station: ENE 8km
Mise jour: 18/08/2017 22:00
clair
clair
 Wind from OSO
Vent: OSO 6 km/h
Temprature: 34°C
Point de rose: 12°C
Humidit: 26%
Baromtre: 1012 hPa
Rsum: clair
Visibility: greater than 10 km
2017/08/18 20:00 LEZL 182000Z 24003KT CAVOK 34/12 Q1012 NOSIG
LEMO - Morn, Spain
Distance from station: SE 43km
Mise jour: 18/08/2017 22:00
clair
clair
 Wind from SO
Vent: SO 13 km/h
Temprature: 30°C
Index de chaleur: 30°C
Point de rose: 16°C
Humidit: 43%
Baromtre: 1014 hPa
Rsum: clair
Visibility: greater than 10 km
2017/08/18 20:00 LEMO 182000Z 23007KT 200V270 CAVOK 30/16 Q1014 NOSIG
LEJR - Jerz, Spain
Distance from station: S 71km
Mise jour: 18/08/2017 22:00
clair
clair
 Wind from O
Vent: O 9 km/h
Temprature: 29°C
Index de chaleur: 29°C
Point de rose: 18°C
Humidit: 51%
Baromtre: 1014 hPa
Rsum: clair
Visibility: greater than 10 km
2017/08/18 20:00 LEJR 182000Z 27005KT 240V320 CAVOK 29/18 Q1014
 
LERT - Rota, Spain
Distance from station: SSO 89km
Mise jour: 18/08/2017 22:00
clair
clair
 Wind from O
Vent: O 9 km/h
Temprature: 25°C
Point de rose: 22°C
Humidit: 83%
Baromtre: 1014 hPa
Rsum: clair
Visibility: greater than 10 km
2017/08/18 20:00 LERT 182000Z 27005KT CAVOK 25/22 Q1014 NOSIG
LEMG - Mlaga, Spain
Distance from station: ESE 157km
Mise jour: 18/08/2017 22:00
clair
clair
 Wind from ESE
Vent: ESE 7 km/h
Temprature: 25°C
Point de rose: 21°C
Humidit: 79%
Baromtre: 1015 hPa
Rsum: clair
Visibility: greater than 10 km
2017/08/18 20:00 LEMG 182000Z 11004KT CAVOK 25/21 Q1015 NOSIG
LEBA - Crdoba, Spain
Distance from station: ENE 115km
Mise jour: 18/08/2017 22:00
clair
clair
 Wind from O
Vent: O 6 km/h
Temprature: 32°C
Point de rose: 13°C
Humidit: 31%
Baromtre: 1012 hPa
Clouds: clair
Visibility: 10 km
2017/08/18 20:00 LEBA 182000Z AUTO 26003KT 9999 NCD 32/13 Q1012
 
LEGR - Granada, Spain
Distance from station: E 198km
Mise jour: 18/08/2017 22:00
clair
clair
 Wind from SSO
Vent: SSO 9 km/h
Temprature: 31°C
Point de rose: 9°C
Humidit: 25%
Baromtre: 1017 hPa
Rsum: clair
Visibility: greater than 10 km
2017/08/18 20:00 LEGR 182000Z 21005KT CAVOK 31/09 Q1017
LEAM - Almera, Spain
Distance from station: E 326km
Mise jour: 18/08/2017 22:00
clair
clair
 Wind from varies
Vent: varies 4 km/h
Temprature: 26°C
Point de rose: 23°C
Humidit: 84%
Baromtre: 1014 hPa
Rsum: clair
Visibility: greater than 10 km
2017/08/18 20:00 LEAM 182000Z VRB02KT CAVOK 26/23 Q1014
LEMD - Madrid/Barajas, Spain
Distance from station: NNE 402km
Mise jour: 18/08/2017 22:00
clair
clair
 Wind from N
Vent: N 7 km/h
Temprature: 31°C
Point de rose: 6°C
Humidit: 21%
Baromtre: 1016 hPa
Rsum: clair
Visibility: greater than 10 km
2017/08/18 20:00 LEMD 182000Z 35004KT CAVOK 31/06 Q1016 NOSIG
 
LEVD - Valladolid, Spain
Distance from station: N 492km
Mise jour: 18/08/2017 21:30
clair
clair
 Wind from ENE
Vent: ENE 26 km/h
Temprature: 24°C
Point de rose: 12°C
Humidit: 47%
Baromtre: 1020 hPa
Rsum: clair
Visibility: greater than 10 km
2017/08/18 19:30 LEVD 181930Z 06014KT CAVOK 24/12 Q1020
LEBL - Barcelona, Spain
Distance from station: NE 816km
Mise jour: 18/08/2017 22:00
Few Clouds
Few Clouds
 Wind from varies
Vent: varies 4 km/h
Temprature: 27°C
Index de chaleur: 31°C
Point de rose: 24°C
Humidit: 84%
Baromtre: 1016 hPa
Clouds: Few Clouds
Visibility: 10 km
Cloud details: Few Clouds 1067 m
2017/08/18 20:00 LEBL 182000Z VRB02KT 9999 FEW035 27/24 Q1016 NOSIG
LEVC - Valencia, Spain
Distance from station: ENE 535km
Mise jour: 18/08/2017 22:00
Few Clouds
Few Clouds
 Wind from ENE
Vent: ENE 13 km/h
Temprature: 28°C
Index de chaleur: 29°C
Point de rose: 20°C
Humidit: 62%
Baromtre: 1015 hPa
Clouds: Few Clouds
Visibility: 10 km
Cloud details: Few Clouds 549 m
2017/08/18 20:00 LEVC 182000Z 06007KT 020V120 9999 FEW018 28/20 Q1015 NOSIG